Time;durP1;ratioP1;P1;durP2;ratioP2;P2;SDS_P1;SDS_P2;PMS_P1;PMS_P2;Temp;Humidity;BMP_temperature;BMP_pressure;BME280_temperature;BME280_humidity;BME280_pressure;Samples;Min_cycle;Max_cycle;Signal;HPM_P1;HPM_P2
2022/01/25 00:28:24;;;;;;;88.75;39.50;;;;;;;;;;5003992;28;20076;-68
2022/01/25 00:31:00;;;;;;;90.95;40.65;;;;;;;;;;4991930;28;20603;-68
2022/01/25 00:33:27;;;;;;;92.80;39.42;;;;;;;;;;4998789;28;20820;-68
2022/01/25 00:35:53;;;;;;;86.10;40.08;;;;;;;;;;5008775;28;20033;-68
2022/01/25 00:38:19;;;;;;;84.63;36.83;;;;;;;;;;4993785;28;20034;-68
2022/01/25 00:40:45;;;;;;;85.95;38.70;;;;;;;;;;5005830;28;20037;-68
2022/01/25 00:43:12;;;;;;;90.47;39.20;;;;;;;;;;5004065;28;20026;-68
2022/01/25 00:45:38;;;;;;;108.55;41.60;;;;;;;;;;5029472;28;20041;-68
2022/01/25 00:48:06;;;;;;;92.13;40.70;;;;;;;;;;5041503;28;20037;-68
2022/01/25 00:50:39;;;;;;;90.22;42.35;;;;;;;;;;5033529;28;20025;-68
2022/01/25 00:55:33;;;;;;;91.90;41.55;;;;;;;;;;5045811;28;20045;-68
2022/01/25 00:57:59;;;;;;;93.45;41.28;;;;;;;;;;5046846;28;20029;-68
2022/01/25 01:00:26;;;;;;;95.50;39.33;;;;;;;;;;5038671;28;20061;-68
2022/01/25 01:02:52;;;;;;;89.05;39.65;;;;;;;;;;5035395;28;20026;-68
2022/01/25 01:05:18;;;;;;;89.38;39.63;;;;;;;;;;5023896;28;20076;-68
2022/01/25 01:07:45;;;;;;;85.00;38.55;;;;;;;;;;5045887;28;20040;-68
2022/01/25 01:10:14;;;;;;;83.28;38.03;;;;;;;;;;5040477;28;20452;-68
2022/01/25 01:45:32;;;;;;;148.00;44.10;;;;;;;;;;5008964;28;20031;-68
2022/01/25 01:47:47;;;;;;;123.25;44.88;;;;;;;;;;5000963;28;20042;-68
2022/01/25 01:50:25;;;;;;;131.35;42.58;;;;;;;;;;4998744;28;20042;-68
2022/01/25 01:52:52;;;;;;;115.28;42.00;;;;;;;;;;5007967;28;20037;-68
2022/01/25 01:55:18;;;;;;;222.13;45.58;;;;;;;;;;5011989;28;20038;-68
2022/01/25 01:57:46;;;;;;;156.25;43.42;;;;;;;;;;5001324;28;20038;-68
2022/01/25 02:00:13;;;;;;;203.77;44.67;;;;;;;;;;5006050;28;20042;-68
2022/01/25 02:02:39;;;;;;;164.20;44.92;;;;;;;;;;4995203;28;20042;-68
2022/01/25 02:05:06;;;;;;;170.88;44.80;;;;;;;;;;5010031;28;20037;-68
2022/01/25 02:07:32;;;;;;;172.25;42.90;;;;;;;;;;5003995;28;20097;-68
2022/01/25 02:09:58;;;;;;;180.57;47.92;;;;;;;;;;5003713;28;20034;-68
2022/01/25 02:12:24;;;;;;;151.13;43.78;;;;;;;;;;4998545;28;20116;-68
2022/01/25 02:14:51;;;;;;;167.80;47.50;;;;;;;;;;5044322;28;20029;-68
2022/01/25 02:17:40;;;;;;;154.40;45.08;;;;;;;;;;5053329;28;20033;-68
2022/01/25 02:22:56;;;;;;;188.05;45.55;;;;;;;;;;5043500;28;20056;-68
2022/01/25 02:25:22;;;;;;;199.95;45.10;;;;;;;;;;5047246;28;20441;-68
2022/01/25 02:27:49;;;;;;;168.45;46.40;;;;;;;;;;5028120;28;20033;-68
2022/01/25 02:30:15;;;;;;;206.25;46.88;;;;;;;;;;5040129;28;20056;-68
2022/01/25 02:32:41;;;;;;;161.65;42.90;;;;;;;;;;5049278;28;20040;-68
2022/01/25 02:35:07;;;;;;;185.73;43.90;;;;;;;;;;5038616;28;20039;-68
2022/01/25 02:37:34;;;;;;;203.48;46.03;;;;;;;;;;5053183;28;20041;-68
2022/01/25 02:40:00;;;;;;;237.55;45.45;;;;;;;;;;5046620;28;20635;-68
2022/01/25 02:42:26;;;;;;;213.75;42.83;;;;;;;;;;5053310;28;20029;-68
2022/01/25 02:44:52;;;;;;;186.07;46.88;;;;;;;;;;5052844;28;20130;-68
2022/01/25 02:50:04;;;;;;;218.80;44.63;;;;;;;;;;5052007;28;20078;-68
2022/01/25 02:52:32;;;;;;;270.65;47.20;;;;;;;;;;5052033;28;20393;-68
2022/01/25 02:54:58;;;;;;;226.40;44.72;;;;;;;;;;5052053;28;20055;-68
2022/01/25 02:57:25;;;;;;;155.68;41.05;;;;;;;;;;5038608;28;20513;-68
2022/01/25 02:59:51;;;;;;;214.50;45.35;;;;;;;;;;5048736;28;20025;-68
2022/01/25 03:02:17;;;;;;;227.82;46.90;;;;;;;;;;5037859;28;20033;-68
2022/01/25 03:04:43;;;;;;;262.58;52.03;;;;;;;;;;5044272;28;20032;-68
2022/01/25 03:07:10;;;;;;;252.30;46.97;;;;;;;;;;5043907;28;20036;-68
2022/01/25 03:09:36;;;;;;;286.60;46.67;;;;;;;;;;5037002;28;20132;-68
2022/01/25 03:12:06;;;;;;;150.25;40.95;;;;;;;;;;5017782;28;20121;-68
2022/01/25 03:14:35;;;;;;;254.57;44.08;;;;;;;;;;5045710;28;20116;-68
2022/01/25 03:22:03;;;;;;;211.60;40.25;;;;;;;;;;5049150;28;20436;-68
2022/01/25 03:24:30;;;;;;;190.45;39.95;;;;;;;;;;5037652;28;20029;-68
2022/01/25 03:26:56;;;;;;;376.45;46.25;;;;;;;;;;5051589;28;20021;-68
2022/01/25 03:29:22;;;;;;;328.67;42.67;;;;;;;;;;5051927;28;20025;-68
2022/01/25 03:31:48;;;;;;;334.60;46.15;;;;;;;;;;5047735;28;20032;-68
2022/01/25 03:34:14;;;;;;;108.07;33.22;;;;;;;;;;5044083;28;20500;-69
2022/01/25 03:36:41;;;;;;;242.80;35.05;;;;;;;;;;5040270;28;20484;-69
2022/01/25 03:39:08;;;;;;;214.13;36.90;;;;;;;;;;5040838;28;20041;-69
2022/01/25 03:41:34;;;;;;;138.77;32.97;;;;;;;;;;5028696;28;20416;-68
2022/01/25 03:44:01;;;;;;;216.35;36.25;;;;;;;;;;5050225;28;20074;-69
2022/01/25 03:46:35;;;;;;;180.65;32.40;;;;;;;;;;5046852;28;20394;-69
2022/01/25 03:51:48;;;;;;;121.60;32.25;;;;;;;;;;5035751;28;20440;-68
2022/01/25 03:54:14;;;;;;;98.03;26.48;;;;;;;;;;5048028;28;20013;-69
2022/01/25 03:56:40;;;;;;;185.05;29.73;;;;;;;;;;5039006;28;20025;-69
2022/01/25 03:59:07;;;;;;;116.45;25.50;;;;;;;;;;5044633;28;20431;-69
2022/01/25 04:01:34;;;;;;;85.43;23.85;;;;;;;;;;5051700;28;20378;-69
2022/01/25 04:04:07;;;;;;;112.63;24.80;;;;;;;;;;5034784;28;20500;-69
2022/01/25 04:06:34;;;;;;;94.97;24.98;;;;;;;;;;5043540;28;20100;-68
2022/01/25 04:09:01;;;;;;;70.30;21.77;;;;;;;;;;5041248;28;20029;-69
2022/01/25 04:11:27;;;;;;;53.97;20.95;;;;;;;;;;5050043;28;20091;-69
2022/01/25 04:13:56;;;;;;;68.38;22.73;;;;;;;;;;5050472;28;20037;-69
2022/01/25 04:16:30;;;;;;;52.20;20.58;;;;;;;;;;5036081;28;20025;-68
2022/01/25 04:26:39;;;;;;;69.63;20.05;;;;;;;;;;5049160;28;20083;-69
2022/01/25 04:29:05;;;;;;;56.97;21.02;;;;;;;;;;5026764;28;20032;-68
2022/01/25 04:31:32;;;;;;;60.58;20.75;;;;;;;;;;5055337;28;20036;-68
2022/01/25 04:50:14;;;;;;;55.65;22.15;;;;;;;;;;5038616;28;20036;-68
2022/01/25 04:52:54;;;;;;;58.00;21.88;;;;;;;;;;5031739;28;20481;-68
2022/01/25 04:55:28;;;;;;;57.95;21.75;;;;;;;;;;5046361;28;20064;-68
2022/01/25 04:58:05;;;;;;;44.92;19.98;;;;;;;;;;5054828;28;20040;-68
2022/01/25 05:00:32;;;;;;;44.08;20.45;;;;;;;;;;5053671;28;20029;-68
2022/01/25 05:03:09;;;;;;;52.90;22.55;;;;;;;;;;5046945;28;20029;-68
2022/01/25 05:05:42;;;;;;;66.72;23.95;;;;;;;;;;5048578;28;20032;-68
2022/01/25 05:08:29;;;;;;;61.15;21.67;;;;;;;;;;5052211;28;20523;-69
2022/01/25 05:14:14;;;;;;;78.07;20.55;;;;;;;;;;4997780;28;20057;-68
2022/01/25 05:17:01;;;;;;;78.05;21.65;;;;;;;;;;5012764;28;20573;-68
2022/01/25 05:22:03;;;;;;;47.15;19.05;;;;;;;;;;5005609;28;20122;-69
2022/01/25 05:24:49;;;;;;;67.85;20.30;;;;;;;;;;4998233;28;21276;-68
2022/01/25 05:27:16;;;;;;;70.03;22.08;;;;;;;;;;5002764;28;20036;-69
2022/01/25 05:29:42;;;;;;;49.47;20.08;;;;;;;;;;5006711;28;20034;-69
2022/01/25 05:32:09;;;;;;;51.38;21.63;;;;;;;;;;4996154;28;20034;-69
2022/01/25 05:34:35;;;;;;;46.03;20.10;;;;;;;;;;5008088;28;20038;-69
2022/01/25 05:37:03;;;;;;;54.00;20.00;;;;;;;;;;5001604;28;20133;-69
2022/01/25 05:39:34;;;;;;;65.80;21.42;;;;;;;;;;5000709;28;20141;-68
2022/01/25 05:42:16;;;;;;;48.53;20.83;;;;;;;;;;5008532;28;20034;-68
2022/01/25 05:44:56;;;;;;;44.30;20.00;;;;;;;;;;5012201;28;20549;-68
2022/01/25 05:47:29;;;;;;;49.15;21.80;;;;;;;;;;4994614;28;20061;-69
2022/01/25 05:49:55;;;;;;;56.35;21.88;;;;;;;;;;5036348;28;20103;-69
2022/01/25 05:52:21;;;;;;;53.45;22.48;;;;;;;;;;5050513;28;20488;-69
2022/01/25 05:54:48;;;;;;;57.88;21.55;;;;;;;;;;5041710;28;20060;-69
2022/01/25 05:57:15;;;;;;;45.72;21.92;;;;;;;;;;5025407;28;20091;-69
2022/01/25 05:59:41;;;;;;;91.20;24.38;;;;;;;;;;5045490;28;20037;-69
2022/01/25 06:02:08;;;;;;;63.50;24.98;;;;;;;;;;5043734;28;20033;-69
2022/01/25 06:04:34;;;;;;;50.65;21.42;;;;;;;;;;5038091;28;20025;-69
2022/01/25 06:07:00;;;;;;;62.28;22.48;;;;;;;;;;5046459;28;20440;-69
2022/01/25 06:09:26;;;;;;;67.88;23.98;;;;;;;;;;5044506;28;20676;-69
2022/01/25 06:11:53;;;;;;;50.70;21.13;;;;;;;;;;5047129;28;20112;-68
2022/01/25 06:14:19;;;;;;;75.45;22.35;;;;;;;;;;5052317;28;20028;-69
2022/01/25 06:16:45;;;;;;;71.93;22.65;;;;;;;;;;5039230;28;20029;-69
2022/01/25 06:19:12;;;;;;;61.70;22.05;;;;;;;;;;5050751;28;20120;-68
2022/01/25 06:21:38;;;;;;;69.63;23.20;;;;;;;;;;5043871;28;21681;-69
2022/01/25 06:24:04;;;;;;;86.00;23.13;;;;;;;;;;5035687;28;20052;-69
2022/01/25 06:26:30;;;;;;;73.32;23.27;;;;;;;;;;5036861;28;20030;-68
2022/01/25 06:28:56;;;;;;;83.07;23.58;;;;;;;;;;5040212;28;20039;-69
2022/01/25 06:31:22;;;;;;;68.68;23.33;;;;;;;;;;5044448;28;20486;-69
2022/01/25 06:33:49;;;;;;;97.40;25.05;;;;;;;;;;5045571;28;20021;-69
2022/01/25 06:36:16;;;;;;;55.42;22.15;;;;;;;;;;5040824;28;20053;-69
2022/01/25 06:38:42;;;;;;;84.50;23.77;;;;;;;;;;5041189;28;20048;-69
2022/01/25 06:41:12;;;;;;;79.68;24.55;;;;;;;;;;5048005;28;20029;-69
2022/01/25 06:43:39;;;;;;;84.35;25.38;;;;;;;;;;5051547;28;20079;-69
2022/01/25 06:46:05;;;;;;;75.03;25.40;;;;;;;;;;5041813;28;20017;-69
2022/01/25 06:48:32;;;;;;;57.95;23.63;;;;;;;;;;5050537;28;20025;-69
2022/01/25 06:50:58;;;;;;;56.83;22.92;;;;;;;;;;5038994;28;20055;-68
2022/01/25 06:53:24;;;;;;;67.55;25.58;;;;;;;;;;5049212;28;20036;-69
2022/01/25 06:55:50;;;;;;;69.63;25.25;;;;;;;;;;5043222;28;20215;-69
2022/01/25 06:58:17;;;;;;;72.32;26.60;;;;;;;;;;5040988;28;20025;-69
2022/01/25 07:00:43;;;;;;;86.93;25.30;;;;;;;;;;5046152;28;20025;-69
2022/01/25 07:03:09;;;;;;;64.93;23.80;;;;;;;;;;5048422;28;20110;-69
2022/01/25 07:05:35;;;;;;;66.20;25.63;;;;;;;;;;5049410;28;20163;-69
2022/01/25 07:08:02;;;;;;;72.80;25.25;;;;;;;;;;5047974;28;20021;-68
2022/01/25 07:10:28;;;;;;;68.28;25.10;;;;;;;;;;5044336;28;20142;-68
2022/01/25 07:12:54;;;;;;;68.35;23.95;;;;;;;;;;5023423;28;20411;-69
2022/01/25 07:15:20;;;;;;;72.03;25.75;;;;;;;;;;5044568;28;20025;-69
2022/01/25 07:17:46;;;;;;;74.72;25.10;;;;;;;;;;5045660;28;20027;-69
2022/01/25 07:20:13;;;;;;;92.63;26.95;;;;;;;;;;5037796;28;20029;-69
2022/01/25 07:22:41;;;;;;;72.63;24.30;;;;;;;;;;5045435;28;20025;-69
2022/01/25 07:25:08;;;;;;;105.22;26.30;;;;;;;;;;5040419;28;20068;-69
2022/01/25 07:27:34;;;;;;;96.75;25.20;;;;;;;;;;5044011;28;20079;-69
2022/01/25 07:30:00;;;;;;;64.57;21.38;;;;;;;;;;5050752;28;20104;-69
2022/01/25 07:32:27;;;;;;;114.80;24.77;;;;;;;;;;5023919;28;20454;-69
2022/01/25 07:34:53;;;;;;;79.43;22.48;;;;;;;;;;5039639;28;20041;-69
2022/01/25 07:37:20;;;;;;;53.85;21.27;;;;;;;;;;5041613;28;20025;-69
2022/01/25 07:39:47;;;;;;;74.15;23.60;;;;;;;;;;5045154;28;20139;-69
2022/01/25 07:42:14;;;;;;;80.82;22.50;;;;;;;;;;5040919;28;20094;-69
2022/01/25 07:44:46;;;;;;;66.35;20.45;;;;;;;;;;5021899;28;20428;-68
2022/01/25 07:47:12;;;;;;;71.53;21.58;;;;;;;;;;5039906;28;20020;-68
2022/01/25 07:49:38;;;;;;;59.80;19.98;;;;;;;;;;5044672;28;20025;-69
2022/01/25 07:52:05;;;;;;;57.05;19.50;;;;;;;;;;5018311;28;20022;-73
2022/01/25 07:54:31;;;;;;;67.97;20.67;;;;;;;;;;5038861;28;20041;-69
2022/01/25 07:56:57;;;;;;;43.13;20.42;;;;;;;;;;5045679;28;20415;-69
2022/01/25 07:59:24;;;;;;;48.95;20.65;;;;;;;;;;5043712;28;20594;-68
2022/01/25 08:01:51;;;;;;;48.30;20.50;;;;;;;;;;5044126;28;20028;-69
2022/01/25 08:04:18;;;;;;;46.70;21.08;;;;;;;;;;5024172;28;20025;-68
2022/01/25 08:06:44;;;;;;;53.50;22.00;;;;;;;;;;5040577;28;20033;-68
2022/01/25 08:09:10;;;;;;;44.63;21.05;;;;;;;;;;5041694;28;20052;-68
2022/01/25 08:11:37;;;;;;;52.58;21.27;;;;;;;;;;5021543;28;20037;-68
2022/01/25 08:14:14;;;;;;;50.58;20.17;;;;;;;;;;5039303;28;20390;-68
2022/01/25 08:16:41;;;;;;;51.60;21.67;;;;;;;;;;5023097;28;20120;-68
2022/01/25 08:19:08;;;;;;;50.00;20.75;;;;;;;;;;5042302;28;20037;-68
2022/01/25 08:21:36;;;;;;;53.25;21.55;;;;;;;;;;5043028;28;20029;-68
2022/01/25 08:24:03;;;;;;;47.70;21.42;;;;;;;;;;5042752;28;20032;-68
2022/01/25 08:26:29;;;;;;;49.92;21.85;;;;;;;;;;5042202;28;20023;-68
2022/01/25 08:28:55;;;;;;;52.97;20.40;;;;;;;;;;5042423;28;20083;-68
2022/01/25 08:31:21;;;;;;;44.95;20.25;;;;;;;;;;5041626;28;20438;-68
2022/01/25 08:33:47;;;;;;;65.85;27.77;;;;;;;;;;5028588;28;20029;-68
2022/01/25 08:36:13;;;;;;;47.15;20.27;;;;;;;;;;5039062;28;20033;-68
2022/01/25 08:38:40;;;;;;;45.60;21.00;;;;;;;;;;5038988;28;20057;-68
2022/01/25 08:41:06;;;;;;;47.90;19.30;;;;;;;;;;5031187;28;20025;-68
2022/01/25 08:43:35;;;;;;;55.78;23.80;;;;;;;;;;5039443;28;20505;-68
2022/01/25 08:46:01;;;;;;;56.45;24.73;;;;;;;;;;5042410;28;20112;-68
2022/01/25 08:48:27;;;;;;;59.97;26.55;;;;;;;;;;5034611;28;20140;-68
2022/01/25 08:50:54;;;;;;;50.85;23.75;;;;;;;;;;5046799;28;20025;-69
2022/01/25 08:53:20;;;;;;;51.75;23.45;;;;;;;;;;5044486;28;20025;-68
2022/01/25 08:55:46;;;;;;;42.53;20.55;;;;;;;;;;5029801;28;20164;-68
2022/01/25 08:58:12;;;;;;;48.63;23.15;;;;;;;;;;5041588;28;20033;-69
2022/01/25 09:00:38;;;;;;;49.05;21.48;;;;;;;;;;5045873;28;20028;-68
2022/01/25 09:03:04;;;;;;;47.70;20.15;;;;;;;;;;5038515;28;20104;-68
2022/01/25 09:05:31;;;;;;;45.10;20.08;;;;;;;;;;5036069;28;20041;-68
2022/01/25 09:07:58;;;;;;;46.13;22.02;;;;;;;;;;5042678;28;20024;-68
2022/01/25 09:10:24;;;;;;;45.70;21.40;;;;;;;;;;5047852;28;20020;-68
2022/01/25 09:12:50;;;;;;;47.38;22.08;;;;;;;;;;5045078;28;20142;-68
2022/01/25 09:15:17;;;;;;;45.25;22.00;;;;;;;;;;5050901;28;20060;-68
2022/01/25 09:17:43;;;;;;;45.05;21.70;;;;;;;;;;5049661;28;20021;-69
2022/01/25 09:20:09;;;;;;;45.65;20.42;;;;;;;;;;5049447;28;20925;-69
2022/01/25 09:22:35;;;;;;;46.92;19.23;;;;;;;;;;5032869;28;20053;-69
2022/01/25 09:25:01;;;;;;;40.47;18.55;;;;;;;;;;5048466;28;20108;-69
2022/01/25 09:27:27;;;;;;;40.00;18.27;;;;;;;;;;5046879;28;20376;-69
2022/01/25 09:29:54;;;;;;;47.78;19.48;;;;;;;;;;5047304;28;20025;-69
2022/01/25 09:32:20;;;;;;;45.85;19.20;;;;;;;;;;5049782;28;20025;-69
2022/01/25 09:34:46;;;;;;;48.30;21.33;;;;;;;;;;5051928;28;20040;-69
2022/01/25 09:37:12;;;;;;;43.17;19.92;;;;;;;;;;5037492;28;20056;-68
2022/01/25 09:39:39;;;;;;;46.80;21.08;;;;;;;;;;5029059;28;20048;-68
2022/01/25 09:42:08;;;;;;;40.58;19.52;;;;;;;;;;5042851;28;20029;-68
2022/01/25 09:44:38;;;;;;;43.40;19.45;;;;;;;;;;5022481;28;20029;-69
2022/01/25 09:47:05;;;;;;;45.22;18.98;;;;;;;;;;5044857;28;20025;-68
2022/01/25 09:49:32;;;;;;;42.42;19.85;;;;;;;;;;5027145;28;20489;-68
2022/01/25 09:52:00;;;;;;;49.33;20.33;;;;;;;;;;5035935;28;20068;-68
2022/01/25 09:54:27;;;;;;;44.88;19.98;;;;;;;;;;5049036;28;20017;-68
2022/01/25 09:56:53;;;;;;;41.95;20.45;;;;;;;;;;5041569;28;20508;-68
2022/01/25 09:59:19;;;;;;;43.13;20.05;;;;;;;;;;5041556;28;20028;-68
2022/01/25 10:01:45;;;;;;;47.78;20.35;;;;;;;;;;5048879;28;20078;-68
2022/01/25 10:04:35;;;;;;;49.92;22.80;;;;;;;;;;5041340;28;20079;-69
2022/01/25 10:07:01;;;;;;;47.85;18.85;;;;;;;;;;5049959;28;20060;-69
2022/01/25 10:09:29;;;;;;;44.85;18.95;;;;;;;;;;5020130;28;20021;-69
2022/01/25 10:11:55;;;;;;;48.67;21.48;;;;;;;;;;5044165;28;20021;-69
2022/01/25 10:14:23;;;;;;;46.05;19.38;;;;;;;;;;5044883;28;20056;-68
2022/01/25 10:16:54;;;;;;;40.28;18.55;;;;;;;;;;5045496;28;20083;-68
2022/01/25 10:19:24;;;;;;;47.95;19.98;;;;;;;;;;5043741;28;20029;-69
2022/01/25 10:21:51;;;;;;;43.85;20.63;;;;;;;;;;5036626;28;20029;-69
2022/01/25 10:24:17;;;;;;;43.67;19.73;;;;;;;;;;5033828;28;20017;-68
2022/01/25 10:26:43;;;;;;;42.72;18.98;;;;;;;;;;5034049;28;20109;-68
2022/01/25 10:29:10;;;;;;;42.72;19.17;;;;;;;;;;5015997;28;20448;-69
2022/01/25 10:31:41;;;;;;;40.65;20.23;;;;;;;;;;5043970;28;20051;-69
2022/01/25 10:34:09;;;;;;;41.95;18.40;;;;;;;;;;5053686;28;20037;-69
2022/01/25 10:36:39;;;;;;;35.13;16.85;;;;;;;;;;5045528;28;20022;-69
2022/01/25 10:39:05;;;;;;;35.67;17.80;;;;;;;;;;5039845;28;20123;-69
2022/01/25 10:41:31;;;;;;;40.67;18.13;;;;;;;;;;5040695;28;20055;-69
2022/01/25 10:43:58;;;;;;;40.67;17.05;;;;;;;;;;5035449;28;20056;-69
2022/01/25 10:46:25;;;;;;;38.42;17.35;;;;;;;;;;5053859;28;20067;-69
2022/01/25 10:48:51;;;;;;;40.80;18.63;;;;;;;;;;5035682;28;20060;-69
2022/01/25 10:51:29;;;;;;;48.25;20.50;;;;;;;;;;5053523;28;20083;-69
2022/01/25 10:53:58;;;;;;;54.10;21.38;;;;;;;;;;5053762;28;20040;-69
2022/01/25 10:56:24;;;;;;;51.70;20.90;;;;;;;;;;5036298;28;20028;-69
2022/01/25 10:58:50;;;;;;;59.15;24.02;;;;;;;;;;5051415;28;20025;-69
2022/01/25 11:01:30;;;;;;;47.75;21.90;;;;;;;;;;5053376;28;20033;-69
2022/01/25 11:04:03;;;;;;;50.30;21.85;;;;;;;;;;5053845;28;20037;-69
2022/01/25 11:06:29;;;;;;;48.88;21.42;;;;;;;;;;5049071;28;20477;-69
2022/01/25 11:09:00;;;;;;;45.67;21.70;;;;;;;;;;5051624;28;20029;-69
2022/01/25 11:11:33;;;;;;;49.05;21.27;;;;;;;;;;5051963;28;20530;-69
2022/01/25 11:14:50;;;;;;;;;;;;;;;;;;5052997;28;20419;-69
2022/01/25 11:16:45;;;;;;;49.28;20.73;;;;;;;;;;5052773;28;19916;-69
2022/01/25 11:19:11;;;;;;;53.47;24.55;;;;;;;;;;5035008;28;20425;-69
2022/01/25 11:21:37;;;;;;;45.85;21.45;;;;;;;;;;5052447;28;20025;-69
2022/01/25 11:24:03;;;;;;;55.08;23.50;;;;;;;;;;5052703;28;20024;-69
2022/01/25 11:26:30;;;;;;;47.42;22.80;;;;;;;;;;5042834;28;20014;-69
2022/01/25 11:28:56;;;;;;;40.22;18.95;;;;;;;;;;5048912;28;20028;-69
2022/01/25 11:31:24;;;;;;;52.30;22.08;;;;;;;;;;5049070;28;20029;-69
2022/01/25 11:33:51;;;;;;;49.45;20.48;;;;;;;;;;5032616;28;20489;-69
2022/01/25 11:36:19;;;;;;;40.33;18.75;;;;;;;;;;5049439;28;20693;-66
2022/01/25 11:38:50;;;;;;;53.72;21.00;;;;;;;;;;5034992;28;20068;-66
2022/01/25 11:41:19;;;;;;;48.58;22.63;;;;;;;;;;5045866;28;20032;-66
2022/01/25 11:44:04;;;;;;;51.58;21.63;;;;;;;;;;5049165;28;20029;-66
2022/01/25 11:46:30;;;;;;;55.92;23.63;;;;;;;;;;5038778;28;20106;-66
2022/01/25 11:49:01;;;;;;;49.05;22.17;;;;;;;;;;5046871;28;20112;-66
2022/01/25 11:51:27;;;;;;;62.45;26.52;;;;;;;;;;5048355;28;20385;-66
2022/01/25 11:53:53;;;;;;;56.53;26.80;;;;;;;;;;5045034;28;20079;-66
2022/01/25 11:56:19;;;;;;;51.03;22.35;;;;;;;;;;5046750;28;20424;-66
2022/01/25 11:58:55;;;;;;;62.88;26.73;;;;;;;;;;5042896;28;20104;-66
2022/01/25 12:01:23;;;;;;;50.72;22.17;;;;;;;;;;5048078;28;20017;-66
2022/01/25 12:03:50;;;;;;;57.25;22.33;;;;;;;;;;5039032;28;20033;-66
2022/01/25 12:06:25;;;;;;;56.22;22.00;;;;;;;;;;5038616;28;20560;-66
2022/01/25 12:09:07;;;;;;;58.83;23.17;;;;;;;;;;5032076;28;20392;-66
2022/01/25 12:11:36;;;;;;;53.80;22.33;;;;;;;;;;5045904;28;20041;-66
2022/01/25 12:14:14;;;;;;;50.53;21.60;;;;;;;;;;5046515;28;20049;-66
2022/01/25 12:16:44;;;;;;;57.03;22.88;;;;;;;;;;5044505;28;20029;-66
2022/01/25 12:19:12;;;;;;;58.58;24.60;;;;;;;;;;5049470;28;20082;-66
2022/01/25 12:21:49;;;;;;;59.47;26.55;;;;;;;;;;5036089;28;20032;-66
2022/01/25 12:24:19;;;;;;;93.35;38.65;;;;;;;;;;5050203;28;20119;-66
2022/01/25 12:29:41;;;;;;;59.35;27.83;;;;;;;;;;5039126;28;20062;-66
2022/01/25 12:32:17;;;;;;;58.25;24.00;;;;;;;;;;5047537;28;20030;-66
2022/01/25 12:35:02;;;;;;;59.90;25.88;;;;;;;;;;5044778;28;20026;-66
2022/01/25 12:37:44;;;;;;;68.00;28.77;;;;;;;;;;5046817;28;20060;-69
2022/01/25 12:40:30;;;;;;;66.00;27.70;;;;;;;;;;5036638;28;20505;-69
2022/01/25 12:43:04;;;;;;;68.93;27.98;;;;;;;;;;5045913;28;20522;-69
2022/01/25 12:45:32;;;;;;;62.65;24.17;;;;;;;;;;5054250;28;20029;-69
2022/01/25 12:47:59;;;;;;;66.28;26.27;;;;;;;;;;5034905;28;20424;-68
2022/01/25 12:50:26;;;;;;;59.58;26.40;;;;;;;;;;5048860;28;20032;-68
2022/01/25 12:52:52;;;;;;;65.13;26.58;;;;;;;;;;5046821;28;20037;-68
2022/01/25 12:55:22;;;;;;;66.95;27.27;;;;;;;;;;5022337;28;20437;-68
2022/01/25 12:57:50;;;;;;;66.63;26.48;;;;;;;;;;5046431;28;20104;-69
2022/01/25 13:00:16;;;;;;;63.75;26.73;;;;;;;;;;5043912;28;20025;-68
2022/01/25 13:02:42;;;;;;;62.33;26.58;;;;;;;;;;5051431;28;20033;-68
2022/01/25 13:05:19;;;;;;;68.22;27.10;;;;;;;;;;5044114;28;20513;-68
2022/01/25 13:07:45;;;;;;;66.20;29.05;;;;;;;;;;5038757;28;20017;-68
2022/01/25 13:10:22;;;;;;;64.40;28.38;;;;;;;;;;5029153;28;20481;-68
2022/01/25 13:13:10;;;;;;;66.00;28.63;;;;;;;;;;5045723;28;20079;-68
2022/01/25 13:18:09;;;;;;;61.93;26.70;;;;;;;;;;5043060;28;20092;-68
2022/01/25 13:20:35;;;;;;;61.38;24.90;;;;;;;;;;5033112;28;20052;-68
2022/01/25 13:23:01;;;;;;;57.92;25.27;;;;;;;;;;5058506;28;20074;-68
2022/01/25 13:25:32;;;;;;;58.45;25.83;;;;;;;;;;5042158;28;20029;-68
2022/01/25 13:28:02;;;;;;;66.53;27.75;;;;;;;;;;5045290;28;20048;-68
2022/01/25 13:30:41;;;;;;;55.10;26.20;;;;;;;;;;5053393;28;20538;-68
2022/01/25 13:33:11;;;;;;;56.78;26.02;;;;;;;;;;5047984;28;20402;-68
2022/01/25 13:35:40;;;;;;;66.75;27.65;;;;;;;;;;5049836;28;20032;-68
2022/01/25 13:38:11;;;;;;;67.70;26.88;;;;;;;;;;5040351;28;20539;-68
2022/01/25 13:41:25;;;;;;;69.97;25.73;;;;;;;;;;5049410;28;20080;-68
2022/01/25 13:46:09;;;;;;;62.85;26.55;;;;;;;;;;5045419;28;20028;-68
2022/01/25 13:48:36;;;;;;;58.78;25.75;;;;;;;;;;5041297;28;20025;-68
2022/01/25 13:51:06;;;;;;;65.70;27.05;;;;;;;;;;5047155;28;20389;-68
2022/01/25 13:53:33;;;;;;;61.25;25.45;;;;;;;;;;5044248;28;20021;-68
2022/01/25 13:56:00;;;;;;;59.40;25.05;;;;;;;;;;5026933;28;20037;-68
2022/01/25 13:58:28;;;;;;;61.78;25.48;;;;;;;;;;5045098;28;20474;-68
2022/01/25 14:00:55;;;;;;;64.70;28.23;;;;;;;;;;5037783;28;20021;-68
2022/01/25 14:03:25;;;;;;;56.55;25.80;;;;;;;;;;5046212;28;20079;-68
2022/01/25 14:05:52;;;;;;;66.32;26.58;;;;;;;;;;5049854;28;20442;-68
2022/01/25 14:08:18;;;;;;;55.78;24.45;;;;;;;;;;5046728;28;20078;-68
2022/01/25 14:10:47;;;;;;;63.92;26.33;;;;;;;;;;5041084;28;20025;-68
2022/01/25 14:24:14;;;;;;;57.75;27.27;;;;;;;;;;5038966;28;20031;-68
2022/01/25 14:26:41;;;;;;;61.42;27.63;;;;;;;;;;5032254;28;20018;-68
2022/01/25 14:29:16;;;;;;;60.70;27.50;;;;;;;;;;5035454;28;20036;-68
2022/01/25 14:31:45;;;;;;;60.83;26.42;;;;;;;;;;5044993;28;20060;-68
2022/01/25 14:34:13;;;;;;;61.28;25.80;;;;;;;;;;5047721;28;20020;-68
2022/01/25 14:36:42;;;;;;;63.72;26.30;;;;;;;;;;5042611;28;20029;-68
2022/01/25 14:39:09;;;;;;;68.72;28.10;;;;;;;;;;5044489;28;20409;-68
2022/01/25 14:41:37;;;;;;;69.43;28.23;;;;;;;;;;5043289;28;20056;-69
2022/01/25 14:44:09;;;;;;;62.17;26.88;;;;;;;;;;5049036;28;20100;-69
2022/01/25 14:46:41;;;;;;;63.10;27.30;;;;;;;;;;5044682;28;20028;-69
2022/01/25 14:49:12;;;;;;;65.82;27.25;;;;;;;;;;5047725;28;20053;-69
2022/01/25 14:51:44;;;;;;;76.03;30.15;;;;;;;;;;5048636;28;20393;-69
2022/01/25 14:54:18;;;;;;;70.65;32.33;;;;;;;;;;5049102;28;20063;-69
2022/01/25 14:56:49;;;;;;;70.93;28.80;;;;;;;;;;5047980;28;20033;-69
2022/01/25 15:01:56;;;;;;;69.22;29.25;;;;;;;;;;5047722;28;20428;-69
2022/01/25 15:04:23;;;;;;;70.28;31.90;;;;;;;;;;5041323;28;20035;-69
2022/01/25 15:06:49;;;;;;;70.72;30.00;;;;;;;;;;5045142;28;20029;-69
2022/01/25 15:09:16;;;;;;;72.63;31.00;;;;;;;;;;5042298;28;20053;-69
2022/01/25 15:11:43;;;;;;;67.28;28.75;;;;;;;;;;5047753;28;20021;-69
2022/01/25 15:14:17;;;;;;;73.63;29.52;;;;;;;;;;5040532;28;20033;-69
2022/01/25 15:16:43;;;;;;;71.30;31.52;;;;;;;;;;5043655;28;20121;-69
2022/01/25 15:19:10;;;;;;;77.88;30.17;;;;;;;;;;5030187;28;20034;-69
2022/01/25 15:21:36;;;;;;;67.03;32.00;;;;;;;;;;5044848;28;20017;-69
2022/01/25 15:24:02;;;;;;;67.03;29.80;;;;;;;;;;5043666;28;20369;-69
2022/01/25 15:26:34;;;;;;;71.63;30.58;;;;;;;;;;5050195;28;20093;-69
2022/01/25 15:29:01;;;;;;;74.97;32.00;;;;;;;;;;5044854;28;20033;-69
2022/01/25 15:31:28;;;;;;;73.15;31.75;;;;;;;;;;5044874;28;20021;-69
2022/01/25 15:33:54;;;;;;;72.22;32.40;;;;;;;;;;5043946;28;20516;-69
2022/01/25 15:36:21;;;;;;;66.32;30.60;;;;;;;;;;5050632;28;20025;-69
2022/01/25 15:38:49;;;;;;;72.20;30.90;;;;;;;;;;5044165;28;20134;-69
2022/01/25 15:41:15;;;;;;;70.28;31.08;;;;;;;;;;5024210;28;20047;-69
2022/01/25 15:46:23;;;;;;;71.97;31.75;;;;;;;;;;5048226;28;20170;-69
2022/01/25 15:48:49;;;;;;;64.03;27.48;;;;;;;;;;5041267;28;20018;-69
2022/01/25 15:51:15;;;;;;;73.45;33.20;;;;;;;;;;5045285;28;20108;-66
2022/01/25 15:53:41;;;;;;;70.60;30.45;;;;;;;;;;5044932;28;20044;-70
2022/01/25 15:56:07;;;;;;;65.95;30.75;;;;;;;;;;5047392;28;20039;-69
2022/01/25 15:58:33;;;;;;;71.78;30.33;;;;;;;;;;5049115;28;20033;-69
2022/01/25 16:01:00;;;;;;;68.88;28.85;;;;;;;;;;5046062;28;20021;-69
2022/01/25 16:03:27;;;;;;;78.35;33.00;;;;;;;;;;5030940;28;20025;-70
2022/01/25 16:05:53;;;;;;;175.60;73.10;;;;;;;;;;5032280;28;20079;-70
2022/01/25 16:08:20;;;;;;;65.10;30.20;;;;;;;;;;5030796;28;20023;-69
2022/01/25 16:10:46;;;;;;;70.25;28.95;;;;;;;;;;5046989;28;20095;-69
2022/01/25 16:13:13;;;;;;;66.97;28.45;;;;;;;;;;5032486;28;20043;-69
2022/01/25 16:15:41;;;;;;;67.40;29.70;;;;;;;;;;5050341;28;20099;-69
2022/01/25 16:18:07;;;;;;;67.82;30.45;;;;;;;;;;5025865;28;20037;-69
2022/01/25 16:20:34;;;;;;;67.78;29.08;;;;;;;;;;5041291;28;20036;-69
2022/01/25 16:23:00;;;;;;;67.75;29.45;;;;;;;;;;5043903;28;20029;-69
2022/01/25 16:25:27;;;;;;;67.68;30.52;;;;;;;;;;5046123;28;20346;-69
2022/01/25 16:27:53;;;;;;;70.20;33.92;;;;;;;;;;5050482;28;20021;-70
2022/01/25 16:30:20;;;;;;;71.40;32.83;;;;;;;;;;5044686;28;20048;-69
2022/01/25 16:32:47;;;;;;;67.13;29.23;;;;;;;;;;5046805;28;20407;-69